sensor_id;sensor_type;location;lat;lon;timestamp;temperature;humidity
45137;DHT22;30894;51.740;19.498;2023-05-23T00:01:15;6.40;65.50
45137;DHT22;30894;51.740;19.498;2023-05-23T00:03:56;6.40;65.50
45137;DHT22;30894;51.740;19.498;2023-05-23T00:06:26;6.40;65.50
45137;DHT22;30894;51.740;19.498;2023-05-23T00:08:53;6.30;65.50
45137;DHT22;30894;51.740;19.498;2023-05-23T00:11:23;6.30;65.40
45137;DHT22;30894;51.740;19.498;2023-05-23T00:14:02;6.30;65.50
45137;DHT22;30894;51.740;19.498;2023-05-23T00:16:45;6.30;65.50
45137;DHT22;30894;51.740;19.498;2023-05-23T00:19:15;6.20;65.50
45137;DHT22;30894;51.740;19.498;2023-05-23T00:21:42;6.30;65.60
45137;DHT22;30894;51.740;19.498;2023-05-23T00:24:19;6.20;65.60
45137;DHT22;30894;51.740;19.498;2023-05-23T00:26:45;6.20;65.70
45137;DHT22;30894;51.740;19.498;2023-05-23T00:29:13;6.20;65.70
45137;DHT22;30894;51.740;19.498;2023-05-23T00:31:43;6.20;65.70
45137;DHT22;30894;51.740;19.498;2023-05-23T00:34:14;6.20;65.80
45137;DHT22;30894;51.740;19.498;2023-05-23T00:36:44;6.20;65.80
45137;DHT22;30894;51.740;19.498;2023-05-23T00:39:12;6.20;65.60
45137;DHT22;30894;51.740;19.498;2023-05-23T00:41:46;6.20;65.60
45137;DHT22;30894;51.740;19.498;2023-05-23T00:44:13;6.30;65.70
45137;DHT22;30894;51.740;19.498;2023-05-23T00:46:41;6.20;65.70
45137;DHT22;30894;51.740;19.498;2023-05-23T00:49:13;6.20;65.70
45137;DHT22;30894;51.740;19.498;2023-05-23T00:51:40;6.20;65.70
45137;DHT22;30894;51.740;19.498;2023-05-23T00:54:08;6.20;65.80
45137;DHT22;30894;51.740;19.498;2023-05-23T00:56:35;6.20;65.80
45137;DHT22;30894;51.740;19.498;2023-05-23T00:59:04;6.20;65.90
45137;DHT22;30894;51.740;19.498;2023-05-23T01:01:30;6.10;65.90
45137;DHT22;30894;51.740;19.498;2023-05-23T01:03:58;6.10;66.10
45137;DHT22;30894;51.740;19.498;2023-05-23T01:06:24;6.00;66.20
45137;DHT22;30894;51.740;19.498;2023-05-23T01:08:50;6.00;66.20
45137;DHT22;30894;51.740;19.498;2023-05-23T01:11:23;6.00;66.40
45137;DHT22;30894;51.740;19.498;2023-05-23T01:14:06;6.00;66.50
45137;DHT22;30894;51.740;19.498;2023-05-23T01:17:02;6.00;66.40
45137;DHT22;30894;51.740;19.498;2023-05-23T01:19:51;6.00;66.40
45137;DHT22;30894;51.740;19.498;2023-05-23T01:28:31;6.00;66.40
45137;DHT22;30894;51.740;19.498;2023-05-23T01:31:02;5.90;66.40
45137;DHT22;30894;51.740;19.498;2023-05-23T01:33:31;6.00;66.60
45137;DHT22;30894;51.740;19.498;2023-05-23T01:36:00;5.90;66.70
45137;DHT22;30894;51.740;19.498;2023-05-23T01:38:28;5.90;66.60
45137;DHT22;30894;51.740;19.498;2023-05-23T01:40:54;5.90;66.70
45137;DHT22;30894;51.740;19.498;2023-05-23T01:43:21;5.80;66.80
45137;DHT22;30894;51.740;19.498;2023-05-23T01:45:48;5.70;67.00
45137;DHT22;30894;51.740;19.498;2023-05-23T01:48:16;5.60;67.20
45137;DHT22;30894;51.740;19.498;2023-05-23T01:50:43;5.50;67.30
45137;DHT22;30894;51.740;19.498;2023-05-23T01:53:19;5.50;67.50
45137;DHT22;30894;51.740;19.498;2023-05-23T01:55:47;5.50;67.70
45137;DHT22;30894;51.740;19.498;2023-05-23T01:58:14;5.40;67.70
45137;DHT22;30894;51.740;19.498;2023-05-23T02:00:40;5.40;67.60
45137;DHT22;30894;51.740;19.498;2023-05-23T02:03:06;5.40;67.60
45137;DHT22;30894;51.740;19.498;2023-05-23T02:05:32;5.40;67.70
45137;DHT22;30894;51.740;19.498;2023-05-23T02:08:02;5.40;67.70
45137;DHT22;30894;51.740;19.498;2023-05-23T02:10:28;5.40;67.70
45137;DHT22;30894;51.740;19.498;2023-05-23T02:12:54;5.40;67.60
45137;DHT22;30894;51.740;19.498;2023-05-23T02:15:20;5.50;67.60
45137;DHT22;30894;51.740;19.498;2023-05-23T02:17:48;5.40;67.40
45137;DHT22;30894;51.740;19.498;2023-05-23T02:20:16;5.50;67.40
45137;DHT22;30894;51.740;19.498;2023-05-23T02:22:44;5.50;67.40
45137;DHT22;30894;51.740;19.498;2023-05-23T02:25:10;5.50;67.30
45137;DHT22;30894;51.740;19.498;2023-05-23T02:27:37;5.50;67.30
45137;DHT22;30894;51.740;19.498;2023-05-23T02:30:03;5.50;67.40
45137;DHT22;30894;51.740;19.498;2023-05-23T02:32:30;5.40;67.40
45137;DHT22;30894;51.740;19.498;2023-05-23T02:34:56;5.40;67.50
45137;DHT22;30894;51.740;19.498;2023-05-23T02:37:22;5.30;67.50
45137;DHT22;30894;51.740;19.498;2023-05-23T02:39:48;5.30;67.60
45137;DHT22;30894;51.740;19.498;2023-05-23T02:42:15;5.30;67.60
45137;DHT22;30894;51.740;19.498;2023-05-23T02:44:42;5.20;67.70
45137;DHT22;30894;51.740;19.498;2023-05-23T02:47:08;5.20;67.80
45137;DHT22;30894;51.740;19.498;2023-05-23T02:49:35;5.20;67.90
45137;DHT22;30894;51.740;19.498;2023-05-23T02:52:01;5.20;67.90
45137;DHT22;30894;51.740;19.498;2023-05-23T02:54:27;5.10;68.00
45137;DHT22;30894;51.740;19.498;2023-05-23T02:56:53;5.10;68.10
45137;DHT22;30894;51.740;19.498;2023-05-23T02:59:20;5.10;68.20
45137;DHT22;30894;51.740;19.498;2023-05-23T03:01:48;5.10;68.30
45137;DHT22;30894;51.740;19.498;2023-05-23T03:04:14;5.10;68.30
45137;DHT22;30894;51.740;19.498;2023-05-23T03:06:40;5.10;68.30
45137;DHT22;30894;51.740;19.498;2023-05-23T03:09:08;5.10;68.30
45137;DHT22;30894;51.740;19.498;2023-05-23T03:11:36;5.10;68.30
45137;DHT22;30894;51.740;19.498;2023-05-23T03:14:02;5.10;68.20
45137;DHT22;30894;51.740;19.498;2023-05-23T03:16:28;5.20;68.20
45137;DHT22;30894;51.740;19.498;2023-05-23T03:18:54;5.20;68.20
45137;DHT22;30894;51.740;19.498;2023-05-23T03:21:20;5.20;68.20
45137;DHT22;30894;51.740;19.498;2023-05-23T03:23:49;5.20;68.10
45137;DHT22;30894;51.740;19.498;2023-05-23T03:26:15;5.30;68.10
45137;DHT22;30894;51.740;19.498;2023-05-23T03:28:44;5.30;68.00
45137;DHT22;30894;51.740;19.498;2023-05-23T03:31:11;5.50;68.00
45137;DHT22;30894;51.740;19.498;2023-05-23T03:33:36;5.50;67.90
45137;DHT22;30894;51.740;19.498;2023-05-23T03:36:03;5.60;67.80
45137;DHT22;30894;51.740;19.498;2023-05-23T03:38:29;5.70;67.60
45137;DHT22;30894;51.740;19.498;2023-05-23T03:40:55;5.90;67.50
45137;DHT22;30894;51.740;19.498;2023-05-23T03:43:21;6.00;67.30
45137;DHT22;30894;51.740;19.498;2023-05-23T03:45:47;6.10;67.20
45137;DHT22;30894;51.740;19.498;2023-05-23T03:48:14;6.20;67.00
45137;DHT22;30894;51.740;19.498;2023-05-23T03:50:40;6.40;66.90
45137;DHT22;30894;51.740;19.498;2023-05-23T03:53:06;6.40;66.70
45137;DHT22;30894;51.740;19.498;2023-05-23T03:55:33;6.50;66.70
45137;DHT22;30894;51.740;19.498;2023-05-23T03:57:59;6.60;66.60
45137;DHT22;30894;51.740;19.498;2023-05-23T04:00:35;6.70;66.50
45137;DHT22;30894;51.740;19.498;2023-05-23T04:03:21;6.80;66.40
45137;DHT22;30894;51.740;19.498;2023-05-23T04:05:48;6.90;66.20
45137;DHT22;30894;51.740;19.498;2023-05-23T04:08:14;7.10;66.20
45137;DHT22;30894;51.740;19.498;2023-05-23T04:10:40;7.30;66.00
45137;DHT22;30894;51.740;19.498;2023-05-23T04:13:06;7.40;66.00
45137;DHT22;30894;51.740;19.498;2023-05-23T04:15:34;7.50;65.80
45137;DHT22;30894;51.740;19.498;2023-05-23T04:18:00;7.80;65.60
45137;DHT22;30894;51.740;19.498;2023-05-23T04:20:29;8.10;65.20
45137;DHT22;30894;51.740;19.498;2023-05-23T04:22:55;8.40;64.70
45137;DHT22;30894;51.740;19.498;2023-05-23T04:25:21;8.80;64.20
45137;DHT22;30894;51.740;19.498;2023-05-23T04:27:48;9.10;63.60
45137;DHT22;30894;51.740;19.498;2023-05-23T04:30:15;9.50;63.20
45137;DHT22;30894;51.740;19.498;2023-05-23T04:32:43;9.90;62.70
45137;DHT22;30894;51.740;19.498;2023-05-23T04:35:13;10.30;62.30
45137;DHT22;30894;51.740;19.498;2023-05-23T04:37:39;10.70;61.90
45137;DHT22;30894;51.740;19.498;2023-05-23T04:40:07;11.10;61.40
45137;DHT22;30894;51.740;19.498;2023-05-23T04:42:34;11.40;61.00
45137;DHT22;30894;51.740;19.498;2023-05-23T04:45:00;11.80;60.70
45137;DHT22;30894;51.740;19.498;2023-05-23T04:47:28;12.10;60.30
45137;DHT22;30894;51.740;19.498;2023-05-23T04:49:54;12.50;60.10
45137;DHT22;30894;51.740;19.498;2023-05-23T04:52:24;12.90;59.70
45137;DHT22;30894;51.740;19.498;2023-05-23T04:54:52;13.20;59.20
45137;DHT22;30894;51.740;19.498;2023-05-23T04:57:18;13.70;58.70
45137;DHT22;30894;51.740;19.498;2023-05-23T04:59:47;14.20;58.20
45137;DHT22;30894;51.740;19.498;2023-05-23T05:02:14;14.60;57.70
45137;DHT22;30894;51.740;19.498;2023-05-23T05:04:40;15.00;57.10
45137;DHT22;30894;51.740;19.498;2023-05-23T05:07:06;15.50;56.60
45137;DHT22;30894;51.740;19.498;2023-05-23T05:09:32;16.00;56.10
45137;DHT22;30894;51.740;19.498;2023-05-23T05:11:59;16.40;55.60
45137;DHT22;30894;51.740;19.498;2023-05-23T05:14:25;16.80;55.20
45137;DHT22;30894;51.740;19.498;2023-05-23T05:16:55;17.20;54.70
45137;DHT22;30894;51.740;19.498;2023-05-23T05:19:25;17.60;54.30
45137;DHT22;30894;51.740;19.498;2023-05-23T05:21:51;18.10;54.00
45137;DHT22;30894;51.740;19.498;2023-05-23T05:24:17;18.50;53.60
45137;DHT22;30894;51.740;19.498;2023-05-23T05:26:46;18.90;53.30
45137;DHT22;30894;51.740;19.498;2023-05-23T05:29:16;19.20;53.00
45137;DHT22;30894;51.740;19.498;2023-05-23T05:31:42;19.50;52.80
45137;DHT22;30894;51.740;19.498;2023-05-23T05:34:10;19.80;52.50
45137;DHT22;30894;51.740;19.498;2023-05-23T05:36:37;20.10;53.00
45137;DHT22;30894;51.740;19.498;2023-05-23T05:39:13;20.40;52.10
45137;DHT22;30894;51.740;19.498;2023-05-23T05:41:40;20.70;51.90
45137;DHT22;30894;51.740;19.498;2023-05-23T05:44:10;21.00;51.60
45137;DHT22;30894;51.740;19.498;2023-05-23T05:46:36;21.40;52.00
45137;DHT22;30894;51.740;19.498;2023-05-23T05:49:03;21.90;51.00
45137;DHT22;30894;51.740;19.498;2023-05-23T05:51:29;22.20;50.70
45137;DHT22;30894;51.740;19.498;2023-05-23T05:53:56;22.40;50.50
45137;DHT22;30894;51.740;19.498;2023-05-23T05:56:22;22.70;50.40
45137;DHT22;30894;51.740;19.498;2023-05-23T05:58:49;23.00;50.20
45137;DHT22;30894;51.740;19.498;2023-05-23T06:01:15;23.30;50.00
45137;DHT22;30894;51.740;19.498;2023-05-23T06:03:42;23.70;49.80
45137;DHT22;30894;51.740;19.498;2023-05-23T06:06:09;24.00;49.60
45137;DHT22;30894;51.740;19.498;2023-05-23T06:08:42;24.20;49.40
45137;DHT22;30894;51.740;19.498;2023-05-23T06:11:08;24.50;49.20
45137;DHT22;30894;51.740;19.498;2023-05-23T06:13:34;24.70;49.10
45137;DHT22;30894;51.740;19.498;2023-05-23T06:16:00;24.80;49.10
45137;DHT22;30894;51.740;19.498;2023-05-23T06:18:26;25.10;49.00
45137;DHT22;30894;51.740;19.498;2023-05-23T06:20:53;25.30;48.80
45137;DHT22;30894;51.740;19.498;2023-05-23T06:23:19;25.60;48.70
45137;DHT22;30894;51.740;19.498;2023-05-23T06:25:45;25.80;48.50
45137;DHT22;30894;51.740;19.498;2023-05-23T06:28:11;26.00;48.50
45137;DHT22;30894;51.740;19.498;2023-05-23T06:30:41;26.30;48.40
45137;DHT22;30894;51.740;19.498;2023-05-23T06:33:08;26.40;48.20
45137;DHT22;30894;51.740;19.498;2023-05-23T06:35:41;26.60;48.10
45137;DHT22;30894;51.740;19.498;2023-05-23T06:38:11;26.90;47.90
45137;DHT22;30894;51.740;19.498;2023-05-23T06:40:37;27.10;47.80
45137;DHT22;30894;51.740;19.498;2023-05-23T06:43:03;27.20;47.70
45137;DHT22;30894;51.740;19.498;2023-05-23T06:45:30;27.50;47.50
45137;DHT22;30894;51.740;19.498;2023-05-23T06:48:04;27.70;47.40
45137;DHT22;30894;51.740;19.498;2023-05-23T06:50:30;28.10;47.20
45137;DHT22;30894;51.740;19.498;2023-05-23T06:53:00;28.50;46.90
45137;DHT22;30894;51.740;19.498;2023-05-23T06:55:29;28.70;46.70
45137;DHT22;30894;51.740;19.498;2023-05-23T06:57:57;28.80;46.60
45137;DHT22;30894;51.740;19.498;2023-05-23T07:00:27;28.90;46.40
45137;DHT22;30894;51.740;19.498;2023-05-23T07:02:57;29.10;46.40
45137;DHT22;30894;51.740;19.498;2023-05-23T07:05:31;29.50;46.20
45137;DHT22;30894;51.740;19.498;2023-05-23T07:08:03;29.80;45.90
45137;DHT22;30894;51.740;19.498;2023-05-23T07:10:29;29.80;45.80
45137;DHT22;30894;51.740;19.498;2023-05-23T07:12:56;29.80;45.80
45137;DHT22;30894;51.740;19.498;2023-05-23T07:15:22;29.90;45.90
45137;DHT22;30894;51.740;19.498;2023-05-23T07:17:48;30.00;45.90
45137;DHT22;30894;51.740;19.498;2023-05-23T07:20:15;30.20;45.70
45137;DHT22;30894;51.740;19.498;2023-05-23T07:22:41;30.30;45.60
45137;DHT22;30894;51.740;19.498;2023-05-23T07:25:07;30.60;45.50
45137;DHT22;30894;51.740;19.498;2023-05-23T07:27:38;30.90;45.30
45137;DHT22;30894;51.740;19.498;2023-05-23T07:30:07;31.30;45.00
45137;DHT22;30894;51.740;19.498;2023-05-23T07:32:37;31.50;44.80
45137;DHT22;30894;51.740;19.498;2023-05-23T07:35:03;31.70;44.50
45137;DHT22;30894;51.740;19.498;2023-05-23T07:37:30;31.80;44.40
45137;DHT22;30894;51.740;19.498;2023-05-23T07:39:56;31.80;44.20
45137;DHT22;30894;51.740;19.498;2023-05-23T07:42:25;31.60;44.10
45137;DHT22;30894;51.740;19.498;2023-05-23T07:44:51;31.70;44.30
45137;DHT22;30894;51.740;19.498;2023-05-23T07:47:18;31.80;44.20
45137;DHT22;30894;51.740;19.498;2023-05-23T07:49:44;32.00;44.00
45137;DHT22;30894;51.740;19.498;2023-05-23T07:52:12;32.00;43.90
45137;DHT22;30894;51.740;19.498;2023-05-23T07:54:39;31.80;44.10
45137;DHT22;30894;51.740;19.498;2023-05-23T07:57:08;31.80;44.20
45137;DHT22;30894;51.740;19.498;2023-05-23T07:59:35;32.00;44.20
45137;DHT22;30894;51.740;19.498;2023-05-23T08:02:01;32.10;43.90
45137;DHT22;30894;51.740;19.498;2023-05-23T08:04:28;32.00;44.00
45137;DHT22;30894;51.740;19.498;2023-05-23T08:07:10;31.90;44.00
45137;DHT22;30894;51.740;19.498;2023-05-23T08:09:40;32.00;43.90
45137;DHT22;30894;51.740;19.498;2023-05-23T08:12:08;32.20;43.90
45137;DHT22;30894;51.740;19.498;2023-05-23T08:14:34;32.60;43.60
45137;DHT22;30894;51.740;19.498;2023-05-23T08:17:01;32.50;43.20
45137;DHT22;30894;51.740;19.498;2023-05-23T08:19:31;32.40;43.20
45137;DHT22;30894;51.740;19.498;2023-05-23T08:22:01;32.50;43.10
45137;DHT22;30894;51.740;19.498;2023-05-23T08:24:27;32.70;42.90
45137;DHT22;30894;51.740;19.498;2023-05-23T08:26:55;32.80;42.80
45137;DHT22;30894;51.740;19.498;2023-05-23T08:29:21;33.10;42.60
45137;DHT22;30894;51.740;19.498;2023-05-23T08:31:48;33.00;42.20
45137;DHT22;30894;51.740;19.498;2023-05-23T08:34:17;32.70;42.30
45137;DHT22;30894;51.740;19.498;2023-05-23T08:36:44;32.40;42.50
45137;DHT22;30894;51.740;19.498;2023-05-23T08:39:10;32.50;42.60
45137;DHT22;30894;51.740;19.498;2023-05-23T08:41:42;32.70;42.50
45137;DHT22;30894;51.740;19.498;2023-05-23T08:44:08;32.70;42.40
45137;DHT22;30894;51.740;19.498;2023-05-23T08:46:45;32.40;42.40
45137;DHT22;30894;51.740;19.498;2023-05-23T08:49:17;32.20;42.50
45137;DHT22;30894;51.740;19.498;2023-05-23T08:51:44;32.10;42.70
45137;DHT22;30894;51.740;19.498;2023-05-23T08:54:11;32.10;42.70
45137;DHT22;30894;51.740;19.498;2023-05-23T08:56:38;32.00;42.80
45137;DHT22;30894;51.740;19.498;2023-05-23T08:59:08;31.90;42.80
45137;DHT22;30894;51.740;19.498;2023-05-23T09:01:36;31.30;42.90
45137;DHT22;30894;51.740;19.498;2023-05-23T09:04:05;30.80;43.40
45137;DHT22;30894;51.740;19.498;2023-05-23T09:06:37;30.40;43.80
45137;DHT22;30894;51.740;19.498;2023-05-23T09:09:06;30.10;44.00
45137;DHT22;30894;51.740;19.498;2023-05-23T09:11:34;30.00;44.10
45137;DHT22;30894;51.740;19.498;2023-05-23T09:14:00;30.00;44.20
45137;DHT22;30894;51.740;19.498;2023-05-23T09:16:33;29.90;44.10
45137;DHT22;30894;51.740;19.498;2023-05-23T09:18:59;29.90;44.20
45137;DHT22;30894;51.740;19.498;2023-05-23T09:21:53;30.10;44.20
45137;DHT22;30894;51.740;19.498;2023-05-23T09:24:20;30.90;43.50
45137;DHT22;30894;51.740;19.498;2023-05-23T09:27:24;31.50;42.70
45137;DHT22;30894;51.740;19.498;2023-05-23T09:30:20;31.70;42.50
45137;DHT22;30894;51.740;19.498;2023-05-23T09:33:45;32.40;41.90
45137;DHT22;30894;51.740;19.498;2023-05-23T09:36:16;33.20;41.30
45137;DHT22;30894;51.740;19.498;2023-05-23T09:38:45;33.20;41.00
45137;DHT22;30894;51.740;19.498;2023-05-23T09:41:29;33.50;40.90
45137;DHT22;30894;51.740;19.498;2023-05-23T09:43:57;34.00;40.60
45137;DHT22;30894;51.740;19.498;2023-05-23T09:46:39;34.50;40.10
45137;DHT22;30894;51.740;19.498;2023-05-23T09:49:25;34.50;39.90
45137;DHT22;30894;51.740;19.498;2023-05-23T09:51:59;34.10;39.90
45137;DHT22;30894;51.740;19.498;2023-05-23T09:54:27;33.70;40.30
45137;DHT22;30894;51.740;19.498;2023-05-23T09:56:56;33.30;40.60
45137;DHT22;30894;51.740;19.498;2023-05-23T09:59:27;33.20;40.70
45137;DHT22;30894;51.740;19.498;2023-05-23T10:01:57;33.30;40.70
45137;DHT22;30894;51.740;19.498;2023-05-23T10:04:29;33.50;40.60
45137;DHT22;30894;51.740;19.498;2023-05-23T10:07:03;33.50;40.50
45137;DHT22;30894;51.740;19.498;2023-05-23T10:09:46;33.80;40.30
45137;DHT22;30894;51.740;19.498;2023-05-23T10:12:43;34.30;40.00
45137;DHT22;30894;51.740;19.498;2023-05-23T10:15:14;34.40;40.00
45137;DHT22;30894;51.740;19.498;2023-05-23T10:18:08;34.50;39.70
45137;DHT22;30894;51.740;19.498;2023-05-23T10:20:58;34.90;39.40
45137;DHT22;30894;51.740;19.498;2023-05-23T10:23:30;35.30;39.10
45137;DHT22;30894;51.740;19.498;2023-05-23T10:25:59;35.40;38.90
45137;DHT22;30894;51.740;19.498;2023-05-23T10:28:35;35.30;38.80
45137;DHT22;30894;51.740;19.498;2023-05-23T10:31:02;34.50;39.30
45137;DHT22;30894;51.740;19.498;2023-05-23T10:33:35;34.40;39.50
45137;DHT22;30894;51.740;19.498;2023-05-23T10:36:18;34.80;39.30
45137;DHT22;30894;51.740;19.498;2023-05-23T10:39:04;35.30;39.10
45137;DHT22;30894;51.740;19.498;2023-05-23T10:41:40;35.50;38.70
45137;DHT22;30894;51.740;19.498;2023-05-23T10:44:18;35.30;38.80
45137;DHT22;30894;51.740;19.498;2023-05-23T10:46:53;34.80;38.90
45137;DHT22;30894;51.740;19.498;2023-05-23T10:49:36;34.00;39.30
45137;DHT22;30894;51.740;19.498;2023-05-23T10:52:03;34.20;39.60
45137;DHT22;30894;51.740;19.498;2023-05-23T10:54:48;34.40;39.40
45137;DHT22;30894;51.740;19.498;2023-05-23T10:57:21;34.30;40.00
45137;DHT22;30894;51.740;19.498;2023-05-23T10:59:54;33.80;39.40
45137;DHT22;30894;51.740;19.498;2023-05-23T11:02:27;33.20;39.80
45137;DHT22;30894;51.740;19.498;2023-05-23T11:05:23;32.60;40.30
45137;DHT22;30894;51.740;19.498;2023-05-23T11:13:20;31.30;41.30
45137;DHT22;30894;51.740;19.498;2023-05-23T11:15:48;30.80;41.70
45137;DHT22;30894;51.740;19.498;2023-05-23T11:18:25;30.30;42.00
45137;DHT22;30894;51.740;19.498;2023-05-23T11:20:53;30.10;42.30
45137;DHT22;30894;51.740;19.498;2023-05-23T11:23:20;30.10;42.40
45137;DHT22;30894;51.740;19.498;2023-05-23T11:25:50;30.10;42.30
45137;DHT22;30894;51.740;19.498;2023-05-23T11:28:21;30.10;42.30
45137;DHT22;30894;51.740;19.498;2023-05-23T11:30:49;29.90;42.30
45137;DHT22;30894;51.740;19.498;2023-05-23T11:33:16;29.80;42.40
45137;DHT22;30894;51.740;19.498;2023-05-23T11:35:45;30.10;42.30
45137;DHT22;30894;51.740;19.498;2023-05-23T11:38:15;30.70;41.80
45137;DHT22;30894;51.740;19.498;2023-05-23T11:40:44;31.40;41.30
45137;DHT22;30894;51.740;19.498;2023-05-23T11:43:17;31.80;40.80
45137;DHT22;30894;51.740;19.498;2023-05-23T11:45:44;31.80;40.60
45137;DHT22;30894;51.740;19.498;2023-05-23T11:48:15;32.00;40.30
45137;DHT22;30894;51.740;19.498;2023-05-23T11:50:50;32.60;40.10
45137;DHT22;30894;51.740;19.498;2023-05-23T11:53:20;33.20;39.60
45137;DHT22;30894;51.740;19.498;2023-05-23T11:55:53;33.50;39.20
45137;DHT22;30894;51.740;19.498;2023-05-23T11:58:28;33.70;39.10
45137;DHT22;30894;51.740;19.498;2023-05-23T12:01:10;34.00;38.90
45137;DHT22;30894;51.740;19.498;2023-05-23T12:03:47;34.40;38.70
45137;DHT22;30894;51.740;19.498;2023-05-23T12:06:17;34.40;38.40
45137;DHT22;30894;51.740;19.498;2023-05-23T12:08:43;34.00;39.30
45137;DHT22;30894;51.740;19.498;2023-05-23T12:11:16;33.30;39.00
45137;DHT22;30894;51.740;19.498;2023-05-23T12:13:45;32.50;39.50
45137;DHT22;30894;51.740;19.498;2023-05-23T12:16:17;31.90;40.00
45137;DHT22;30894;51.740;19.498;2023-05-23T12:18:44;31.90;40.20
45137;DHT22;30894;51.740;19.498;2023-05-23T12:21:13;32.40;40.00
45137;DHT22;30894;51.740;19.498;2023-05-23T12:23:41;33.00;39.80
45137;DHT22;30894;51.740;19.498;2023-05-23T12:26:07;33.00;39.40
45137;DHT22;30894;51.740;19.498;2023-05-23T12:28:51;32.90;39.50
45137;DHT22;30894;51.740;19.498;2023-05-23T12:31:20;32.60;39.60
45137;DHT22;30894;51.740;19.498;2023-05-23T12:33:47;32.40;39.60
45137;DHT22;30894;51.740;19.498;2023-05-23T12:36:15;32.20;39.70
45137;DHT22;30894;51.740;19.498;2023-05-23T12:38:47;32.10;39.90
45137;DHT22;30894;51.740;19.498;2023-05-23T12:41:18;31.80;40.10
45137;DHT22;30894;51.740;19.498;2023-05-23T12:43:52;31.60;40.30
45137;DHT22;30894;51.740;19.498;2023-05-23T12:46:24;31.20;40.50
45137;DHT22;30894;51.740;19.498;2023-05-23T12:48:52;30.90;41.40
45137;DHT22;30894;51.740;19.498;2023-05-23T12:51:20;30.50;40.90
45137;DHT22;30894;51.740;19.498;2023-05-23T12:53:46;30.30;41.10
45137;DHT22;30894;51.740;19.498;2023-05-23T12:56:14;30.60;41.10
45137;DHT22;30894;51.740;19.498;2023-05-23T12:58:43;30.70;40.90
45137;DHT22;30894;51.740;19.498;2023-05-23T13:01:09;30.70;40.70
45137;DHT22;30894;51.740;19.498;2023-05-23T13:03:36;30.50;40.70
45137;DHT22;30894;51.740;19.498;2023-05-23T13:06:02;30.30;40.90
45137;DHT22;30894;51.740;19.498;2023-05-23T13:08:29;30.10;41.00
45137;DHT22;30894;51.740;19.498;2023-05-23T13:10:55;29.90;41.20
45137;DHT22;30894;51.740;19.498;2023-05-23T13:13:22;29.60;41.30
45137;DHT22;30894;51.740;19.498;2023-05-23T13:15:51;29.30;41.40
45137;DHT22;30894;51.740;19.498;2023-05-23T13:18:17;29.10;41.60
45137;DHT22;30894;51.740;19.498;2023-05-23T13:20:43;29.00;41.70
45137;DHT22;30894;51.740;19.498;2023-05-23T13:23:11;28.90;41.80
45137;DHT22;30894;51.740;19.498;2023-05-23T13:25:37;28.80;41.80
45137;DHT22;30894;51.740;19.498;2023-05-23T13:28:04;28.80;41.80
45137;DHT22;30894;51.740;19.498;2023-05-23T13:30:32;28.80;41.80
45137;DHT22;30894;51.740;19.498;2023-05-23T13:32:59;28.90;41.60
45137;DHT22;30894;51.740;19.498;2023-05-23T13:35:26;29.10;41.50
45137;DHT22;30894;51.740;19.498;2023-05-23T13:37:52;29.30;41.30
45137;DHT22;30894;51.740;19.498;2023-05-23T13:40:22;29.30;41.20
45137;DHT22;30894;51.740;19.498;2023-05-23T13:42:49;29.40;41.20
45137;DHT22;30894;51.740;19.498;2023-05-23T13:45:16;29.40;41.00
45137;DHT22;30894;51.740;19.498;2023-05-23T13:47:46;29.70;41.00
45137;DHT22;30894;51.740;19.498;2023-05-23T13:50:16;29.90;40.60
45137;DHT22;30894;51.740;19.498;2023-05-23T13:52:52;30.40;40.40
45137;DHT22;30894;51.740;19.498;2023-05-23T13:55:18;31.00;40.00
45137;DHT22;30894;51.740;19.498;2023-05-23T13:57:47;31.50;39.70
45137;DHT22;30894;51.740;19.498;2023-05-23T14:00:16;32.10;39.20
45137;DHT22;30894;51.740;19.498;2023-05-23T14:02:42;32.40;38.80
45137;DHT22;30894;51.740;19.498;2023-05-23T14:05:18;32.40;38.80
45137;DHT22;30894;51.740;19.498;2023-05-23T14:07:44;32.00;38.90
45137;DHT22;30894;51.740;19.498;2023-05-23T14:10:13;31.90;39.10
45137;DHT22;30894;51.740;19.498;2023-05-23T14:12:40;32.00;39.20
45137;DHT22;30894;51.740;19.498;2023-05-23T14:15:10;32.00;39.10
45137;DHT22;30894;51.740;19.498;2023-05-23T14:17:36;32.00;39.10
45137;DHT22;30894;51.740;19.498;2023-05-23T14:20:09;32.10;39.00
45137;DHT22;30894;51.740;19.498;2023-05-23T14:22:35;32.30;39.10
45137;DHT22;30894;51.740;19.498;2023-05-23T14:25:02;32.70;38.90
45137;DHT22;30894;51.740;19.498;2023-05-23T14:27:28;33.20;38.60
45137;DHT22;30894;51.740;19.498;2023-05-23T14:29:54;33.30;38.30
45137;DHT22;30894;51.740;19.498;2023-05-23T14:32:21;33.10;38.30
45137;DHT22;30894;51.740;19.498;2023-05-23T14:34:50;32.70;38.50
45137;DHT22;30894;51.740;19.498;2023-05-23T14:37:18;32.20;38.80
45137;DHT22;30894;51.740;19.498;2023-05-23T14:39:45;31.90;39.20
45137;DHT22;30894;51.740;19.498;2023-05-23T14:42:11;31.40;39.50
45137;DHT22;30894;51.740;19.498;2023-05-23T14:44:40;31.00;39.90
45137;DHT22;30894;51.740;19.498;2023-05-23T14:47:09;30.70;40.20
45137;DHT22;30894;51.740;19.498;2023-05-23T14:49:36;30.30;40.20
45137;DHT22;30894;51.740;19.498;2023-05-23T14:52:03;30.00;40.50
45137;DHT22;30894;51.740;19.498;2023-05-23T14:54:30;29.80;40.70
45137;DHT22;30894;51.740;19.498;2023-05-23T14:56:57;29.60;40.90
45137;DHT22;30894;51.740;19.498;2023-05-23T14:59:23;29.40;41.10
45137;DHT22;30894;51.740;19.498;2023-05-23T15:01:52;29.10;41.20
45137;DHT22;30894;51.740;19.498;2023-05-23T15:04:18;28.90;41.40
45137;DHT22;30894;51.740;19.498;2023-05-23T15:06:44;28.70;41.50
45137;DHT22;30894;51.740;19.498;2023-05-23T15:09:12;28.50;41.60
45137;DHT22;30894;51.740;19.498;2023-05-23T15:11:38;28.30;41.80
45137;DHT22;30894;51.740;19.498;2023-05-23T15:14:05;28.10;41.90
45137;DHT22;30894;51.740;19.498;2023-05-23T15:16:31;28.00;42.00
45137;DHT22;30894;51.740;19.498;2023-05-23T15:18:58;27.80;42.20
45137;DHT22;30894;51.740;19.498;2023-05-23T15:21:28;27.50;42.20
45137;DHT22;30894;51.740;19.498;2023-05-23T15:23:57;27.30;42.40
45137;DHT22;30894;51.740;19.498;2023-05-23T15:26:24;27.10;42.50
45137;DHT22;30894;51.740;19.498;2023-05-23T15:28:51;26.90;42.70
45137;DHT22;30894;51.740;19.498;2023-05-23T15:31:18;26.70;42.70
45137;DHT22;30894;51.740;19.498;2023-05-23T15:33:44;26.60;42.90
45137;DHT22;30894;51.740;19.498;2023-05-23T15:36:12;26.50;43.00
45137;DHT22;30894;51.740;19.498;2023-05-23T15:38:39;26.30;43.10
45137;DHT22;30894;51.740;19.498;2023-05-23T15:41:05;26.10;43.20
45137;DHT22;30894;51.740;19.498;2023-05-23T15:43:33;26.00;43.30
45137;DHT22;30894;51.740;19.498;2023-05-23T15:46:03;25.80;43.40